createdAt,value
2018-06-18T00:00:43.841Z,21.50
2018-06-18T00:03:13.630Z,21.40
2018-06-18T00:05:44.640Z,21.40
2018-06-18T00:08:14.991Z,21.20
2018-06-18T00:10:46.610Z,21.30
2018-06-18T00:13:17.025Z,21.10
2018-06-18T00:15:48.060Z,21.20
2018-06-18T00:18:18.211Z,21.20
2018-06-18T00:20:48.290Z,21.20
2018-06-18T00:23:18.579Z,21.30
2018-06-18T00:25:49.521Z,21.20
2018-06-18T00:28:19.490Z,21.40
2018-06-18T00:30:50.520Z,21.30
2018-06-18T00:33:21.360Z,21.20
2018-06-18T00:35:51.801Z,21.20
2018-06-18T00:38:22.231Z,21.30
2018-06-18T00:40:53.551Z,21.20
2018-06-18T00:43:23.804Z,21.20
2018-06-18T00:45:53.690Z,21.20
2018-06-18T00:48:23.940Z,21.20
2018-06-18T00:50:53.881Z,21.00
2018-06-18T00:53:24.000Z,21.10
2018-06-18T00:56:07.991Z,20.90
2018-06-18T00:58:38.350Z,20.90
2018-06-18T01:01:09.900Z,21.00
2018-06-18T01:03:40.281Z,21.00
2018-06-18T01:06:10.555Z,20.90
2018-06-18T01:08:40.430Z,20.70
2018-06-18T01:11:10.931Z,20.80
2018-06-18T01:13:40.591Z,20.90
2018-06-18T01:16:10.453Z,20.80
2018-06-18T01:18:40.980Z,20.80
2018-06-18T01:21:11.071Z,20.70
2018-06-18T01:24:07.489Z,20.70
2018-06-18T01:26:38.770Z,20.60
2018-06-18T01:29:09.680Z,20.70
2018-06-18T01:31:39.919Z,20.60
2018-06-18T01:34:19.560Z,20.70
2018-06-18T01:36:50.710Z,20.70
2018-06-18T01:39:20.610Z,20.60
2018-06-18T01:41:52.260Z,20.70
2018-06-18T01:44:22.690Z,20.80
2018-06-18T01:46:52.700Z,20.70
2018-06-18T01:49:23.621Z,20.60
2018-06-18T01:51:54.751Z,20.60
2018-06-18T01:54:24.710Z,20.60
2018-06-18T01:56:56.233Z,20.70
2018-06-18T01:59:26.101Z,20.60
2018-06-18T02:01:57.330Z,20.70
2018-06-18T02:04:27.472Z,20.70
2018-06-18T02:06:58.015Z,20.60
2018-06-18T02:09:28.720Z,20.60
2018-06-18T02:11:59.960Z,20.60
2018-06-18T02:14:29.991Z,20.80
2018-06-18T02:17:00.361Z,20.70
2018-06-18T02:19:30.990Z,20.80
2018-06-18T02:22:01.051Z,20.80
2018-06-18T02:24:31.281Z,20.70
2018-06-18T02:27:06.291Z,20.60
2018-06-18T02:29:42.650Z,20.50
2018-06-18T02:32:17.941Z,20.40
2018-06-18T02:34:53.021Z,20.60
2018-06-18T02:37:28.181Z,20.60
2018-06-18T02:40:03.621Z,20.60
2018-06-18T02:42:33.912Z,20.50
2018-06-18T02:45:04.019Z,20.70
2018-06-18T02:47:34.141Z,20.70
2018-06-18T02:50:04.724Z,20.50
2018-06-18T02:52:34.881Z,20.60
2018-06-18T02:55:06.795Z,20.50
2018-06-18T02:57:37.591Z,20.50
2018-06-18T03:00:08.152Z,20.60
2018-06-18T03:02:38.654Z,20.50
2018-06-18T03:05:08.764Z,20.60
2018-06-18T03:07:39.230Z,20.50
2018-06-18T03:10:09.210Z,20.60
2018-06-18T03:12:39.961Z,20.60
2018-06-18T03:15:10.369Z,20.60
2018-06-18T03:17:40.770Z,20.60
2018-06-18T03:20:15.899Z,20.80
2018-06-18T03:22:51.110Z,20.90
2018-06-18T03:25:26.421Z,20.80
2018-06-18T03:28:02.011Z,21.10
2018-06-18T03:30:32.574Z,21.10
2018-06-18T03:33:02.700Z,20.90
2018-06-18T03:35:33.171Z,21.00
2018-06-18T03:38:04.551Z,21.20
2018-06-18T03:40:34.980Z,21.40
2018-06-18T03:43:05.320Z,21.60
2018-06-18T03:45:35.871Z,21.90
2018-06-18T03:48:12.570Z,22.00
2018-06-18T03:50:43.350Z,22.60
2018-06-18T03:53:13.860Z,23.10
2018-06-18T03:55:56.429Z,23.40
2018-06-18T03:58:27.041Z,23.80
2018-06-18T04:01:56.311Z,23.70
2018-06-18T04:04:34.151Z,24.30
2018-06-18T04:07:09.210Z,24.20
2018-06-18T04:09:44.349Z,24.10
2018-06-18T04:12:15.508Z,23.80
2018-06-18T04:14:46.408Z,23.80
2018-06-18T04:17:16.412Z,23.50
2018-06-18T04:19:46.130Z,23.40
2018-06-18T04:22:16.761Z,23.50
2018-06-18T04:24:47.226Z,23.60
2018-06-18T04:27:18.192Z,23.70
2018-06-18T04:29:48.470Z,24.20
2018-06-18T04:32:18.523Z,23.80
2018-06-18T04:34:51.771Z,23.50
2018-06-18T04:37:23.000Z,23.30
2018-06-18T04:39:53.300Z,23.00
2018-06-18T04:42:28.911Z,23.00
2018-06-18T04:45:05.161Z,22.90
2018-06-18T04:47:41.384Z,22.80
2018-06-18T04:50:16.751Z,22.60
2018-06-18T04:52:47.870Z,22.60
2018-06-18T04:55:18.091Z,22.60
2018-06-18T04:57:48.381Z,22.30
2018-06-18T05:00:58.769Z,22.10
2018-06-18T05:03:30.042Z,22.10
2018-06-18T05:05:59.610Z,21.90
2018-06-18T05:10:48.171Z,22.10
2018-06-18T05:13:18.371Z,22.10
2018-06-18T05:15:49.321Z,22.20
2018-06-18T05:18:20.127Z,22.20
2018-06-18T05:20:50.321Z,22.10
2018-06-18T05:23:20.871Z,22.20
2018-06-18T05:25:55.951Z,22.10
2018-06-18T05:28:26.150Z,22.20
2018-06-18T05:30:57.219Z,22.20
2018-06-18T05:33:27.611Z,22.00
2018-06-18T05:35:57.394Z,22.00
2018-06-18T05:38:28.441Z,22.10
2018-06-18T05:40:59.214Z,22.10
2018-06-18T05:43:30.648Z,22.10
2018-06-18T05:46:01.162Z,22.10
2018-06-18T05:48:31.421Z,21.90
2018-06-18T05:51:01.623Z,22.10
2018-06-18T05:53:32.061Z,22.30
2018-06-18T05:56:01.981Z,22.10
2018-06-18T05:58:32.169Z,22.00
2018-06-18T06:01:02.882Z,21.90
2018-06-18T06:03:33.686Z,22.20
2018-06-18T06:06:04.327Z,22.30
2018-06-18T06:08:34.433Z,22.40
2018-06-18T06:11:04.850Z,22.20
2018-06-18T06:13:35.024Z,22.20
2018-06-18T06:16:06.010Z,22.10
2018-06-18T06:18:35.981Z,22.40
2018-06-18T06:21:10.531Z,22.20
2018-06-18T06:23:40.933Z,22.20
2018-06-18T06:26:41.841Z,22.20
2018-06-18T06:29:12.363Z,22.40
2018-06-18T06:31:42.501Z,22.50
2018-06-18T06:34:12.981Z,22.20
2018-06-18T06:36:43.300Z,22.30
2018-06-18T06:39:13.810Z,22.40
2018-06-18T06:41:49.810Z,22.30
2018-06-18T06:44:20.340Z,22.10
2018-06-18T06:46:50.580Z,22.30
2018-06-18T06:49:20.801Z,22.20
2018-06-18T06:51:51.151Z,22.30
2018-06-18T06:54:21.391Z,22.50
2018-06-18T06:56:52.541Z,22.70
2018-06-18T06:59:23.092Z,22.70
2018-06-18T07:01:53.463Z,22.60
2018-06-18T07:04:23.721Z,22.80
2018-06-18T07:06:54.064Z,22.80
2018-06-18T07:09:24.596Z,23.10
2018-06-18T07:11:54.761Z,23.00
2018-06-18T07:14:25.781Z,23.30
2018-06-18T07:16:56.970Z,23.30
2018-06-18T07:19:27.094Z,23.50
2018-06-18T07:21:57.780Z,23.70
2018-06-18T07:24:28.080Z,23.90
2018-06-18T07:26:58.471Z,24.10
2018-06-18T07:29:29.410Z,24.10
2018-06-18T07:31:59.991Z,24.10
2018-06-18T07:34:30.171Z,24.50
2018-06-18T07:37:00.510Z,24.70
2018-06-18T07:39:31.371Z,24.60
2018-06-18T07:42:01.631Z,24.70
2018-06-18T07:44:32.311Z,24.60
2018-06-18T07:47:02.931Z,24.60
2018-06-18T07:49:33.401Z,24.60
2018-06-18T07:52:03.700Z,25.00
2018-06-18T07:54:33.872Z,25.10
2018-06-18T07:57:04.325Z,25.00
2018-06-18T07:59:34.611Z,24.90
2018-06-18T08:02:04.912Z,25.20
2018-06-18T08:04:35.581Z,25.30
2018-06-18T08:07:06.562Z,25.30
2018-06-18T08:09:37.102Z,25.20
2018-06-18T08:12:07.712Z,25.10
2018-06-18T08:14:37.704Z,25.20
2018-06-18T08:17:07.284Z,25.40
2018-06-18T08:19:38.294Z,25.30
2018-06-18T08:22:10.161Z,25.30
2018-06-18T08:24:41.832Z,25.40
2018-06-18T08:27:12.734Z,25.40
2018-06-18T08:29:43.081Z,25.30
2018-06-18T08:32:13.554Z,25.30
2018-06-18T08:34:43.969Z,25.30
2018-06-18T08:37:14.333Z,25.40
2018-06-18T08:39:44.620Z,25.70
2018-06-18T08:42:15.782Z,25.40
2018-06-18T08:44:45.991Z,25.30
2018-06-18T08:47:17.504Z,25.30
2018-06-18T08:51:59.814Z,25.30
2018-06-18T08:54:35.230Z,25.40
2018-06-18T08:57:10.931Z,25.60
2018-06-18T08:59:47.471Z,25.50
2018-06-18T09:02:22.061Z,25.80
2018-06-18T09:04:57.703Z,25.60
2018-06-18T09:07:32.101Z,25.80
2018-06-18T09:10:02.272Z,25.90
2018-06-18T09:12:32.462Z,26.20
2018-06-18T09:15:03.852Z,26.60
2018-06-18T09:17:34.351Z,26.70
2018-06-18T09:20:06.211Z,27.10
2018-06-18T09:22:36.431Z,27.50
2018-06-18T09:25:06.600Z,27.50
2018-06-18T09:27:37.231Z,27.60
2018-06-18T09:30:11.940Z,27.50
2018-06-18T09:32:42.469Z,27.70
2018-06-18T09:35:13.021Z,27.40
2018-06-18T09:37:43.271Z,27.40
2018-06-18T09:40:13.450Z,27.70
2018-06-18T09:42:44.428Z,27.90
2018-06-18T09:45:15.021Z,28.20
2018-06-18T09:47:45.314Z,27.90
2018-06-18T09:50:20.531Z,27.90
2018-06-18T09:52:55.681Z,28.10
2018-06-18T09:55:31.091Z,27.80
2018-06-18T09:58:06.681Z,27.80
2018-06-18T10:00:55.011Z,27.70
2018-06-18T10:03:25.351Z,28.10
2018-06-18T10:05:55.600Z,28.50
2018-06-18T10:08:25.650Z,28.60
2018-06-18T10:10:56.091Z,28.50
2018-06-18T10:13:26.686Z,28.40
2018-06-18T10:15:57.805Z,28.70
2018-06-18T10:18:28.243Z,28.20
2018-06-18T10:20:58.392Z,28.20
2018-06-18T10:23:28.690Z,28.20
2018-06-18T10:25:59.011Z,27.80
2018-06-18T10:28:29.380Z,27.50
2018-06-18T10:30:59.939Z,27.70
2018-06-18T10:33:35.332Z,27.90
2018-06-18T10:36:11.221Z,28.10
2018-06-18T10:38:48.082Z,28.40
2018-06-18T10:41:23.995Z,28.70
2018-06-18T10:43:54.730Z,28.60
2018-06-18T10:46:25.081Z,29.00
2018-06-18T10:48:55.827Z,29.40
2018-06-18T10:51:28.645Z,29.30
2018-06-18T10:53:59.370Z,28.80
2018-06-18T10:56:30.071Z,29.10
2018-06-18T10:59:00.571Z,28.60
2018-06-18T11:01:32.482Z,28.30
2018-06-18T11:04:03.728Z,28.10
2018-06-18T11:06:36.390Z,28.70
2018-06-18T11:09:10.920Z,28.60
2018-06-18T11:11:41.310Z,28.20
2018-06-18T11:14:11.782Z,28.00
2018-06-18T11:16:42.265Z,27.90
2018-06-18T11:19:17.470Z,28.60
2018-06-18T11:21:53.095Z,28.80
2018-06-18T11:24:28.650Z,28.80
2018-06-18T11:26:59.437Z,29.00
2018-06-18T11:29:30.430Z,28.30
2018-06-18T11:32:00.954Z,28.20
2018-06-18T11:34:31.130Z,27.90
2018-06-18T11:37:02.441Z,28.20
2018-06-18T11:39:32.829Z,27.50
2018-06-18T11:42:03.336Z,27.50
2018-06-18T11:44:47.291Z,27.20
2018-06-18T11:47:18.435Z,27.00
2018-06-18T11:49:48.607Z,26.40
2018-06-18T11:52:18.940Z,26.60
2018-06-18T11:54:49.270Z,26.70
2018-06-18T11:57:19.678Z,26.70
2018-06-18T11:59:54.866Z,26.70
2018-06-18T12:02:36.180Z,26.60
2018-06-18T12:05:12.481Z,26.50
2018-06-18T12:07:47.741Z,26.60
2018-06-18T12:10:18.561Z,26.90
2018-06-18T12:12:48.929Z,26.80
2018-06-18T12:15:20.330Z,27.00
2018-06-18T12:17:50.811Z,26.90
2018-06-18T12:20:21.450Z,27.10
2018-06-18T12:22:51.780Z,27.50
2018-06-18T12:25:22.011Z,27.90
2018-06-18T12:27:52.140Z,28.60
2018-06-18T12:30:22.701Z,28.70
2018-06-18T12:32:52.830Z,28.80
2018-06-18T12:35:24.539Z,29.00
2018-06-18T12:37:54.759Z,28.90
2018-06-18T12:40:26.120Z,29.30
2018-06-18T12:42:56.351Z,28.80
2018-06-18T12:45:31.691Z,28.20
2018-06-18T12:48:06.851Z,28.20
2018-06-18T12:50:42.251Z,27.90
2018-06-18T12:53:19.070Z,28.00
2018-06-18T12:56:59.554Z,28.00
2018-06-18T12:59:29.981Z,27.90
2018-06-18T13:02:07.061Z,28.50
2018-06-18T13:04:49.251Z,28.80
2018-06-18T13:07:19.140Z,29.10
2018-06-18T13:09:49.373Z,28.90
2018-06-18T13:12:20.430Z,28.80
2018-06-18T13:14:51.392Z,28.70
2018-06-18T13:17:21.271Z,28.80
2018-06-18T13:19:51.786Z,29.10
2018-06-18T13:22:22.310Z,28.90
2018-06-18T13:24:52.652Z,28.70
2018-06-18T13:27:28.013Z,28.50
2018-06-18T13:29:58.242Z,28.30
2018-06-18T13:32:28.691Z,28.40
2018-06-18T13:34:58.860Z,28.20
2018-06-18T13:37:34.101Z,28.00
2018-06-18T13:40:09.890Z,28.10
2018-06-18T13:42:45.371Z,28.10
2018-06-18T13:45:21.070Z,27.90
2018-06-18T13:47:56.511Z,28.10
2018-06-18T13:50:27.831Z,27.90
2018-06-18T13:52:57.953Z,27.90
2018-06-18T13:55:28.221Z,27.80
2018-06-18T13:57:58.611Z,27.90
2018-06-18T14:00:29.111Z,28.20
2018-06-18T14:02:59.471Z,28.60
2018-06-18T14:05:29.431Z,28.50
2018-06-18T14:07:59.692Z,28.50
2018-06-18T14:10:29.893Z,28.60
2018-06-18T14:13:00.211Z,28.60
2018-06-18T14:15:30.761Z,28.90
2018-06-18T14:18:01.031Z,29.00
2018-06-18T14:20:32.024Z,29.20
2018-06-18T14:23:02.793Z,29.20
2018-06-18T14:25:33.823Z,28.70
2018-06-18T14:28:03.682Z,28.90
2018-06-18T14:30:38.827Z,28.90
2018-06-18T14:33:14.171Z,28.90
2018-06-18T14:35:50.973Z,29.00
2018-06-18T14:38:26.346Z,29.00
2018-06-18T14:40:56.491Z,28.90
2018-06-18T14:43:26.683Z,28.80
2018-06-18T14:45:57.307Z,28.90
2018-06-18T14:48:27.321Z,29.30
2018-06-18T14:50:57.111Z,29.50
2018-06-18T14:53:27.025Z,29.70
2018-06-18T14:56:21.711Z,29.80
2018-06-18T14:59:11.808Z,29.50
2018-06-18T15:01:42.000Z,29.80
2018-06-18T15:04:11.900Z,29.60
2018-06-18T15:06:42.463Z,29.60
2018-06-18T15:09:13.365Z,29.60
2018-06-18T15:11:44.442Z,29.50
2018-06-18T15:14:14.321Z,29.80
2018-06-18T15:16:44.601Z,29.20
2018-06-18T15:19:14.796Z,29.50
2018-06-18T15:21:50.581Z,29.50
2018-06-18T15:24:37.041Z,29.40
2018-06-18T15:27:08.101Z,29.50
2018-06-18T15:29:38.470Z,29.20
2018-06-18T15:32:08.698Z,29.20
2018-06-18T15:34:39.050Z,29.20
2018-06-18T15:37:09.549Z,28.80
2018-06-18T15:39:40.850Z,28.60
2018-06-18T15:42:11.216Z,28.20
2018-06-18T15:44:41.403Z,27.90
2018-06-18T15:47:12.013Z,27.90
2018-06-18T15:49:42.321Z,27.60
2018-06-18T15:52:12.994Z,27.80
2018-06-18T15:54:43.491Z,27.80
2018-06-18T15:57:13.950Z,28.30
2018-06-18T15:59:44.151Z,28.20
2018-06-18T16:02:14.430Z,28.90
2018-06-18T16:04:44.671Z,29.00
2018-06-18T16:07:14.590Z,29.20
2018-06-18T16:09:44.551Z,28.90
2018-06-18T16:12:14.282Z,29.00
2018-06-18T16:14:45.075Z,29.40
2018-06-18T16:17:15.801Z,29.30
2018-06-18T16:19:46.460Z,29.50
2018-06-18T16:22:16.267Z,29.60
2018-06-18T16:24:46.085Z,29.70
2018-06-18T16:30:17.371Z,29.40
2018-06-18T16:32:47.230Z,29.20
2018-06-18T16:35:17.490Z,29.70
2018-06-18T16:37:47.890Z,29.80
2018-06-18T16:40:18.879Z,30.00
2018-06-18T16:42:50.051Z,30.00
2018-06-18T16:45:20.530Z,30.10
2018-06-18T16:47:50.941Z,30.50
2018-06-18T16:50:21.121Z,31.10
2018-06-18T16:52:51.281Z,31.40
2018-06-18T16:55:21.491Z,31.70
2018-06-18T16:57:51.520Z,31.40
2018-06-18T17:00:21.871Z,31.30
2018-06-18T17:02:52.761Z,31.10
2018-06-18T17:05:23.290Z,31.30
2018-06-18T17:07:53.520Z,31.50
2018-06-18T17:10:23.771Z,31.20
2018-06-18T17:12:54.231Z,31.50
2018-06-18T17:15:24.231Z,31.30
2018-06-18T17:17:54.740Z,31.40
2018-06-18T17:20:25.680Z,31.50
2018-06-18T17:22:56.711Z,31.40
2018-06-18T17:25:26.389Z,31.70
2018-06-18T17:27:57.621Z,31.40
2018-06-18T17:30:29.009Z,32.10
2018-06-18T17:32:59.421Z,31.90
2018-06-18T17:35:29.614Z,31.30
2018-06-18T17:38:00.136Z,31.40
2018-06-18T17:40:30.030Z,31.20
2018-06-18T17:43:00.530Z,31.40
2018-06-18T17:45:30.901Z,31.80
2018-06-18T17:48:01.257Z,31.40
2018-06-18T17:50:31.700Z,31.50
2018-06-18T17:53:01.975Z,31.10
2018-06-18T17:55:31.954Z,31.70
2018-06-18T17:58:02.260Z,31.50
2018-06-18T18:00:32.671Z,31.00
2018-06-18T18:03:02.781Z,30.80
2018-06-18T18:05:32.641Z,31.00
2018-06-18T18:08:02.741Z,31.30
2018-06-18T18:10:33.011Z,31.10
2018-06-18T18:13:03.559Z,30.90
2018-06-18T18:15:33.492Z,30.70
2018-06-18T18:18:04.491Z,30.50
2018-06-18T18:20:35.711Z,30.50
2018-06-18T18:23:06.351Z,30.40
2018-06-18T18:25:36.751Z,30.10
2018-06-18T18:28:08.111Z,29.50
2018-06-18T18:30:38.121Z,28.80
2018-06-18T18:33:08.361Z,28.30
2018-06-18T18:35:37.999Z,28.00
2018-06-18T18:38:08.161Z,27.40
2018-06-18T18:40:38.610Z,27.30
2018-06-18T18:43:08.911Z,26.80
2018-06-18T18:45:39.881Z,26.70
2018-06-18T18:48:10.431Z,26.30
2018-06-18T18:50:40.491Z,26.20
2018-06-18T18:53:10.860Z,26.10
2018-06-18T18:55:59.262Z,25.90
2018-06-18T18:59:37.102Z,25.80
2018-06-18T19:02:08.479Z,25.50
2018-06-18T19:05:10.070Z,25.40
2018-06-18T19:07:44.099Z,25.20
2018-06-18T19:10:26.123Z,25.30
2018-06-18T19:12:59.044Z,25.20
2018-06-18T19:15:29.109Z,25.10
2018-06-18T19:17:59.279Z,25.00
2018-06-18T19:20:37.021Z,24.80
2018-06-18T19:23:07.171Z,24.70
2018-06-18T19:25:37.445Z,24.60
2018-06-18T19:28:07.786Z,24.50
2018-06-18T19:30:40.071Z,24.40
2018-06-18T19:33:26.762Z,24.30
2018-06-18T19:35:58.188Z,24.20
2018-06-18T19:38:28.490Z,24.10
2018-06-18T19:40:58.641Z,24.00
2018-06-18T19:43:28.721Z,24.00
2018-06-18T19:46:03.295Z,23.90
2018-06-18T19:48:47.965Z,23.80
2018-06-18T19:51:18.031Z,23.70
2018-06-18T19:53:48.349Z,23.50
2018-06-18T19:56:18.661Z,23.50
2018-06-18T19:58:48.372Z,23.50
2018-06-18T20:01:18.371Z,23.50
2018-06-18T20:03:48.442Z,23.50
2018-06-18T20:06:18.423Z,23.40
2018-06-18T20:08:48.642Z,23.30
2018-06-18T20:11:18.771Z,23.20
2018-06-18T20:13:49.050Z,23.20
2018-06-18T20:16:19.810Z,23.20
2018-06-18T20:18:50.830Z,23.10
2018-06-18T20:21:21.081Z,23.00
2018-06-18T20:23:51.270Z,22.90
2018-06-18T20:26:21.331Z,22.90
2018-06-18T20:28:51.741Z,22.80
2018-06-18T20:31:23.140Z,22.80
2018-06-18T20:33:56.823Z,22.80
2018-06-18T20:36:28.148Z,22.80
2018-06-18T20:38:58.594Z,22.80
2018-06-18T20:41:28.810Z,22.80
2018-06-18T20:44:05.619Z,22.80
2018-06-18T20:46:36.034Z,22.80
2018-06-18T20:49:08.130Z,22.60
2018-06-18T20:51:38.439Z,22.50
2018-06-18T20:54:09.671Z,22.60
2018-06-18T20:56:39.620Z,22.60
2018-06-18T20:59:10.825Z,22.40
2018-06-18T21:01:41.090Z,22.40
2018-06-18T21:04:11.680Z,22.30
2018-06-18T21:06:42.121Z,22.30
2018-06-18T21:09:13.460Z,22.10
2018-06-18T21:11:43.490Z,22.10
2018-06-18T21:14:13.491Z,22.00
2018-06-18T21:16:46.830Z,21.90
2018-06-18T21:19:17.171Z,21.80
2018-06-18T21:21:47.701Z,21.80
2018-06-18T21:24:18.161Z,21.80
2018-06-18T21:26:48.400Z,21.70
2018-06-18T21:29:19.321Z,21.70
2018-06-18T21:31:49.821Z,21.60
2018-06-18T21:34:19.992Z,21.70
2018-06-18T21:36:50.300Z,21.60
2018-06-18T21:39:20.591Z,21.50
2018-06-18T21:41:50.708Z,21.40
2018-06-18T21:44:33.770Z,21.20
2018-06-18T21:47:04.291Z,21.10
2018-06-18T21:49:34.200Z,21.10
2018-06-18T21:52:04.041Z,21.10
2018-06-18T21:54:34.420Z,21.00
2018-06-18T21:57:06.431Z,21.00
2018-06-18T21:59:36.540Z,21.10
2018-06-18T22:02:07.093Z,21.10
2018-06-18T22:04:37.611Z,21.10
2018-06-18T22:07:08.421Z,20.90
2018-06-18T22:09:39.041Z,20.80
2018-06-18T22:12:09.592Z,20.70
2018-06-18T22:14:40.391Z,20.60
2018-06-18T22:17:10.960Z,20.70
2018-06-18T22:19:41.119Z,20.70
2018-06-18T22:22:11.533Z,20.80
2018-06-18T22:24:42.137Z,20.70
2018-06-18T22:27:12.391Z,20.80
2018-06-18T22:29:43.430Z,20.70
2018-06-18T22:32:13.730Z,20.80
2018-06-18T22:34:44.371Z,20.90
2018-06-18T22:37:14.977Z,20.90
2018-06-18T22:39:45.220Z,21.00
2018-06-18T22:42:15.676Z,21.00
2018-06-18T22:44:46.800Z,21.00
2018-06-18T22:47:17.280Z,21.00
2018-06-18T22:49:47.700Z,20.90
2018-06-18T22:52:17.860Z,20.90
2018-06-18T22:54:49.240Z,20.80
2018-06-18T22:57:19.661Z,20.80
2018-06-18T22:59:50.051Z,20.80
2018-06-18T23:02:25.110Z,20.80
2018-06-18T23:04:55.829Z,20.60
2018-06-18T23:07:26.480Z,20.70
2018-06-18T23:09:56.760Z,20.70
2018-06-18T23:12:39.984Z,20.60
2018-06-18T23:15:12.111Z,20.60
2018-06-18T23:17:42.770Z,20.50
2018-06-18T23:20:13.233Z,20.50
2018-06-18T23:22:43.409Z,20.40
2018-06-18T23:25:14.540Z,20.40
2018-06-18T23:27:45.080Z,20.40
2018-06-18T23:30:15.480Z,20.30
2018-06-18T23:32:45.833Z,20.30
2018-06-18T23:35:16.201Z,20.30
2018-06-18T23:37:46.329Z,20.30
2018-06-18T23:40:16.891Z,20.40
2018-06-18T23:42:47.371Z,20.30
2018-06-18T23:45:17.501Z,20.40
2018-06-18T23:47:47.641Z,20.40
2018-06-18T23:50:17.591Z,20.30
2018-06-18T23:52:48.261Z,20.40
2018-06-18T23:55:18.521Z,20.30
2018-06-18T23:57:49.061Z,20.40
